createdAt,value
2023-10-14T00:01:33.328Z,94447.84
2023-10-14T00:04:00.006Z,94440.34
2023-10-14T00:06:26.707Z,94441.50
2023-10-14T00:08:53.227Z,94440.44
2023-10-14T00:11:19.700Z,94436.94
2023-10-14T00:13:46.171Z,94431.78
2023-10-14T00:16:12.803Z,94437.97
2023-10-14T00:18:39.523Z,94422.34
2023-10-14T00:21:06.069Z,94418.03
2023-10-14T00:23:32.516Z,94419.09
2023-10-14T00:25:58.997Z,94435.44
2023-10-14T00:28:25.428Z,94441.09
2023-10-14T00:30:51.890Z,94441.09
2023-10-14T00:33:18.416Z,94447.25
2023-10-14T00:35:44.841Z,94442.38
2023-10-14T00:38:11.323Z,94444.25
2023-10-14T00:40:37.779Z,94450.22
2023-10-14T00:43:04.237Z,94439.13
2023-10-14T00:45:30.735Z,94435.66
2023-10-14T00:47:57.234Z,94422.81
2023-10-14T00:50:23.716Z,94421.00
2023-10-14T00:52:50.166Z,94429.94
2023-10-14T00:55:16.642Z,94430.59
2023-10-14T00:57:43.149Z,94427.00
2023-10-14T01:00:09.619Z,94422.91
2023-10-14T01:02:36.082Z,94418.50
2023-10-14T01:05:02.557Z,94427.03
2023-10-14T01:07:29.002Z,94420.19
2023-10-14T01:09:55.795Z,94424.41
2023-10-14T01:12:22.302Z,94424.41
2023-10-14T01:14:48.762Z,94412.03
2023-10-14T01:17:15.256Z,94411.22
2023-10-14T01:19:41.755Z,94424.09
2023-10-14T01:22:08.249Z,94412.63
2023-10-14T01:24:34.729Z,94422.47
2023-10-14T01:27:01.179Z,94416.72
2023-10-14T01:29:27.632Z,94402.41
2023-10-14T01:31:54.159Z,94396.72
2023-10-14T01:34:20.626Z,94400.69
2023-10-14T01:36:47.181Z,94397.66
2023-10-14T01:39:13.648Z,94403.03
2023-10-14T01:41:40.163Z,94388.34
2023-10-14T01:44:06.628Z,94401.75
2023-10-14T01:46:33.162Z,94393.13
2023-10-14T01:48:59.837Z,94400.34
2023-10-14T01:51:26.632Z,94387.53
2023-10-14T01:53:53.070Z,94391.84
2023-10-14T01:56:19.522Z,94387.84
2023-10-14T01:58:45.969Z,94363.78
2023-10-14T02:01:12.602Z,94377.44
2023-10-14T02:03:39.516Z,94377.81
2023-10-14T02:06:06.148Z,94388.53
2023-10-14T02:08:32.593Z,94378.84
2023-10-14T02:10:59.035Z,94386.41
2023-10-14T02:13:25.505Z,94375.22
2023-10-14T02:15:52.579Z,94378.34
2023-10-14T02:18:19.034Z,94371.94
2023-10-14T02:20:45.494Z,94366.94
2023-10-14T02:23:11.938Z,94362.03
2023-10-14T02:25:38.378Z,94366.25
2023-10-14T02:28:04.854Z,94373.06
2023-10-14T02:30:31.355Z,94371.97
2023-10-14T02:32:57.854Z,94375.47
2023-10-14T02:35:24.398Z,94363.38
2023-10-14T02:37:51.804Z,94370.25
2023-10-14T02:40:18.422Z,94362.94
2023-10-14T02:42:44.922Z,94357.81
2023-10-14T02:45:11.389Z,94357.22
2023-10-14T02:47:37.847Z,94365.06
2023-10-14T02:50:04.345Z,94362.38
2023-10-14T02:52:31.357Z,94362.09
2023-10-14T02:54:57.935Z,94362.94
2023-10-14T02:57:24.420Z,94360.50
2023-10-14T02:59:50.925Z,94363.75
2023-10-14T03:02:17.609Z,94365.06
2023-10-14T03:04:44.077Z,94371.47
2023-10-14T03:07:10.588Z,94363.06
2023-10-14T03:09:37.172Z,94359.81
2023-10-14T03:12:03.637Z,94372.41
2023-10-14T03:14:30.090Z,94371.72
2023-10-14T03:16:56.581Z,94386.91
2023-10-14T03:19:23.209Z,94386.66
2023-10-14T03:21:49.839Z,94394.47
2023-10-14T03:24:16.341Z,94396.91
2023-10-14T03:26:42.784Z,94396.81
2023-10-14T03:29:09.214Z,94396.69
2023-10-14T03:31:35.880Z,94405.44
2023-10-14T03:34:02.400Z,94401.50
2023-10-14T03:36:28.869Z,94398.13
2023-10-14T03:38:55.338Z,94407.66
2023-10-14T03:41:21.835Z,94403.56
2023-10-14T03:43:48.324Z,94409.63
2023-10-14T03:46:14.815Z,94402.97
2023-10-14T03:48:41.361Z,94412.97
2023-10-14T03:51:07.887Z,94402.34
2023-10-14T03:53:34.416Z,94407.25
2023-10-14T03:56:00.867Z,94413.09
2023-10-14T03:58:27.293Z,94415.72
2023-10-14T04:00:53.844Z,94417.69
2023-10-14T04:03:20.431Z,94414.38
2023-10-14T04:05:46.921Z,94420.63
2023-10-14T04:08:13.358Z,94422.34
2023-10-14T04:10:39.830Z,94420.22
2023-10-14T04:13:06.293Z,94423.31
2023-10-14T04:15:32.741Z,94423.31
2023-10-14T04:17:59.304Z,94425.63
2023-10-14T04:20:25.867Z,94425.28
2023-10-14T04:22:52.307Z,94425.72
2023-10-14T04:25:18.807Z,94425.72
2023-10-14T04:27:45.315Z,94413.84
2023-10-14T04:30:11.850Z,94413.31
2023-10-14T04:32:38.352Z,94406.00
2023-10-14T04:35:04.804Z,94385.97
2023-10-14T04:37:31.237Z,94399.19
2023-10-14T04:39:57.722Z,94402.88
2023-10-14T04:42:24.182Z,94399.03
2023-10-14T04:44:50.642Z,94394.38
2023-10-14T04:47:17.371Z,94396.06
2023-10-14T04:49:43.938Z,94389.50
2023-10-14T04:52:10.439Z,94390.78
2023-10-14T04:54:36.922Z,94396.69
2023-10-14T04:57:03.374Z,94407.38
2023-10-14T04:59:29.824Z,94403.09
2023-10-14T05:01:56.359Z,94410.31
2023-10-14T05:04:23.016Z,94409.03
2023-10-14T05:06:49.484Z,94408.00
2023-10-14T05:09:16.008Z,94397.75
2023-10-14T05:11:42.484Z,94396.50
2023-10-14T05:14:08.942Z,94397.66
2023-10-14T05:16:35.482Z,94393.53
2023-10-14T05:19:02.069Z,94387.53
2023-10-14T05:21:28.574Z,94381.53
2023-10-14T05:23:55.027Z,94381.53
2023-10-14T05:26:21.484Z,94380.47
2023-10-14T05:28:47.927Z,94376.38
2023-10-14T05:31:14.491Z,94378.63
2023-10-14T05:33:41.087Z,94390.97
2023-10-14T05:36:07.537Z,94384.78
2023-10-14T05:38:33.985Z,94383.38
2023-10-14T05:41:00.440Z,94383.38
2023-10-14T05:43:26.956Z,94382.34
2023-10-14T05:45:53.499Z,94380.13
2023-10-14T05:48:20.002Z,94394.66
2023-10-14T05:50:46.502Z,94392.19
2023-10-14T05:53:13.054Z,94399.19
2023-10-14T05:55:39.502Z,94405.56
2023-10-14T05:58:05.978Z,94407.06
2023-10-14T06:00:32.478Z,94416.09
2023-10-14T06:02:58.988Z,94416.09
2023-10-14T06:05:25.580Z,94425.28
2023-10-14T06:07:52.061Z,94428.34
2023-10-14T06:10:18.506Z,94435.91
2023-10-14T06:12:44.989Z,94434.66
2023-10-14T06:15:12.166Z,94452.31
2023-10-14T06:17:38.949Z,94453.75
2023-10-14T06:20:05.416Z,94455.59
2023-10-14T06:22:31.857Z,94451.06
2023-10-14T06:24:58.319Z,94443.06
2023-10-14T06:27:24.808Z,94447.16
2023-10-14T06:29:52.506Z,94455.56
2023-10-14T06:32:21.391Z,94468.91
2023-10-14T06:34:48.965Z,94467.47
2023-10-14T06:37:15.452Z,94472.22
2023-10-14T06:39:41.948Z,94465.25
2023-10-14T06:42:08.468Z,94481.63
2023-10-14T06:44:34.910Z,94481.81
2023-10-14T06:47:01.428Z,94476.06
2023-10-14T06:49:29.654Z,94475.16
2023-10-14T06:51:57.477Z,94484.84
2023-10-14T06:54:23.959Z,94492.38
2023-10-14T06:56:50.435Z,94475.69
2023-10-14T06:59:16.866Z,94482.25
2023-10-14T07:01:43.364Z,94484.44
2023-10-14T07:04:09.967Z,94479.25
2023-10-14T07:06:37.468Z,94474.25
2023-10-14T07:09:03.927Z,94474.50
2023-10-14T07:11:30.383Z,94482.28
2023-10-14T07:13:56.830Z,94489.66
2023-10-14T07:16:23.300Z,94488.84
2023-10-14T07:18:49.851Z,94505.03
2023-10-14T07:21:16.322Z,94504.81
2023-10-14T07:23:42.793Z,94501.91
2023-10-14T07:26:09.296Z,94493.44
2023-10-14T07:28:35.740Z,94498.78
2023-10-14T07:31:02.205Z,94502.03
2023-10-14T07:33:28.719Z,94494.19
2023-10-14T07:35:55.217Z,94495.16
2023-10-14T07:38:21.748Z,94495.28
2023-10-14T07:40:48.441Z,94497.84
2023-10-14T07:43:15.019Z,94489.31
2023-10-14T07:45:41.519Z,94501.94
2023-10-14T07:48:07.962Z,94505.81
2023-10-14T07:50:34.409Z,94488.63
2023-10-14T07:53:00.862Z,94492.69
2023-10-14T07:55:27.490Z,94492.69
2023-10-14T07:57:54.006Z,94481.97
2023-10-14T08:00:20.459Z,94480.72
2023-10-14T08:02:46.941Z,94487.94
2023-10-14T08:05:13.410Z,94498.84
2023-10-14T08:07:39.877Z,94498.16
2023-10-14T08:10:06.418Z,94495.88
2023-10-14T08:12:32.912Z,94497.16
2023-10-14T08:14:59.390Z,94508.34
2023-10-14T08:17:25.898Z,94500.88
2023-10-14T08:19:52.391Z,94503.34
2023-10-14T08:22:18.846Z,94508.22
2023-10-14T08:24:45.319Z,94500.56
2023-10-14T08:27:11.749Z,94498.84
2023-10-14T08:29:38.213Z,94497.53
2023-10-14T08:32:04.694Z,94501.28
2023-10-14T08:34:31.211Z,94506.41
2023-10-14T08:36:57.770Z,94508.50
2023-10-14T08:39:24.453Z,94512.00
2023-10-14T08:41:51.063Z,94514.44
2023-10-14T08:44:17.513Z,94521.00
2023-10-14T08:46:44.021Z,94517.63
2023-10-14T08:49:10.762Z,94505.38
2023-10-14T08:51:52.895Z,94508.88
2023-10-14T08:54:20.981Z,94514.84
2023-10-14T08:56:47.452Z,94502.25
2023-10-14T08:59:13.936Z,94513.66
2023-10-14T09:01:40.522Z,94508.09
2023-10-14T09:04:07.121Z,94508.44
2023-10-14T09:06:33.643Z,94501.59
2023-10-14T09:09:00.109Z,94505.66
2023-10-14T09:11:26.581Z,94508.09
2023-10-14T09:13:53.022Z,94508.91
2023-10-14T09:16:19.557Z,94515.09
2023-10-14T09:18:46.062Z,94513.91
2023-10-14T09:21:12.605Z,94503.53
2023-10-14T09:23:39.032Z,94516.34
2023-10-14T09:26:05.622Z,94521.38
2023-10-14T09:28:32.154Z,94529.06
2023-10-14T09:30:58.702Z,94527.63
2023-10-14T09:33:25.265Z,94528.69
2023-10-14T09:35:51.729Z,94528.31
2023-10-14T09:38:18.202Z,94526.69
2023-10-14T09:40:44.668Z,94525.66
2023-10-14T09:43:11.137Z,94526.59
2023-10-14T09:45:37.676Z,94521.00
2023-10-14T09:48:04.249Z,94537.09
2023-10-14T09:50:30.733Z,94532.53
2023-10-14T09:52:57.174Z,94527.84
2023-10-14T09:55:23.646Z,94534.50
2023-10-14T09:57:50.161Z,94526.34
2023-10-14T10:00:16.634Z,94518.31
2023-10-14T10:02:43.129Z,94522.16
2023-10-14T10:05:09.624Z,94524.97
2023-10-14T10:07:36.121Z,94534.41
2023-10-14T10:10:02.802Z,94534.16
2023-10-14T10:12:29.457Z,94543.38
2023-10-14T10:14:55.901Z,94540.41
2023-10-14T10:17:22.361Z,94544.94
2023-10-14T10:19:49.186Z,94554.03
2023-10-14T10:22:16.539Z,94544.19
2023-10-14T10:24:43.037Z,94543.88
2023-10-14T10:27:09.534Z,94534.28
2023-10-14T10:29:35.995Z,94522.84
2023-10-14T10:32:02.495Z,94520.47
2023-10-14T10:34:29.034Z,94527.53
2023-10-14T10:36:55.572Z,94519.16
2023-10-14T10:39:22.341Z,94522.78
2023-10-14T10:41:48.966Z,94510.44
2023-10-14T10:44:15.432Z,94518.31
2023-10-14T10:46:42.069Z,94514.06
2023-10-14T10:49:08.746Z,94523.81
2023-10-14T10:51:35.286Z,94524.41
2023-10-14T10:54:01.761Z,94516.84
2023-10-14T10:56:28.209Z,94518.09
2023-10-14T10:58:54.656Z,94527.59
2023-10-14T11:01:21.263Z,94511.38
2023-10-14T11:03:47.908Z,94514.47
2023-10-14T11:06:14.385Z,94511.03
2023-10-14T11:08:40.830Z,94501.59
2023-10-14T11:11:07.343Z,94503.03
2023-10-14T11:13:33.908Z,94494.19
2023-10-14T11:16:00.440Z,94493.97
2023-10-14T11:18:38.492Z,94496.78
2023-10-14T11:21:06.182Z,94497.50
2023-10-14T11:23:32.670Z,94486.88
2023-10-14T11:25:59.154Z,94499.16
2023-10-14T11:28:25.627Z,94495.66
2023-10-14T11:30:52.246Z,94491.47
2023-10-14T11:33:18.783Z,94483.91
2023-10-14T11:35:46.151Z,94485.41
2023-10-14T11:38:12.726Z,94470.09
2023-10-14T11:40:39.188Z,94487.69
2023-10-14T11:43:05.720Z,94480.97
2023-10-14T11:45:32.203Z,94475.22
2023-10-14T11:47:59.285Z,94477.19
2023-10-14T11:50:26.844Z,94484.78
2023-10-14T11:52:53.298Z,94477.44
2023-10-14T11:55:19.780Z,94468.56
2023-10-14T11:57:46.277Z,94465.91
2023-10-14T12:00:12.779Z,94477.44
2023-10-14T12:02:39.298Z,94473.94
2023-10-14T12:05:05.908Z,94468.22
2023-10-14T12:07:32.500Z,94474.97
2023-10-14T12:09:59.127Z,94471.59
2023-10-14T12:12:25.709Z,94464.50
2023-10-14T12:14:52.147Z,94466.94
2023-10-14T12:17:18.618Z,94460.78
2023-10-14T12:19:45.064Z,94472.22
2023-10-14T12:22:11.583Z,94474.91
2023-10-14T12:24:38.120Z,94469.69
2023-10-14T12:27:04.567Z,94471.88
2023-10-14T12:29:31.018Z,94466.31
2023-10-14T12:32:07.501Z,94473.28
2023-10-14T12:34:43.885Z,94479.81
2023-10-14T12:37:11.912Z,94471.88
2023-10-14T12:39:39.920Z,94486.69
2023-10-14T12:42:06.388Z,94489.28
2023-10-14T12:44:32.843Z,94492.88
2023-10-14T12:46:59.525Z,94502.31
2023-10-14T12:49:26.229Z,94500.34
2023-10-14T12:51:52.881Z,94508.03
2023-10-14T12:54:19.621Z,94513.50
2023-10-14T12:56:46.178Z,94522.72
2023-10-14T12:59:12.650Z,94530.03
2023-10-14T13:01:39.208Z,94524.09
2023-10-14T13:04:05.846Z,94526.63
2023-10-14T13:06:32.324Z,94520.88
2023-10-14T13:08:58.784Z,94529.59
2023-10-14T13:11:25.225Z,94519.56
2023-10-14T13:13:51.730Z,94522.28
2023-10-14T13:16:18.324Z,94507.28
2023-10-14T13:18:44.856Z,94502.56
2023-10-14T13:21:11.304Z,94512.91
2023-10-14T13:23:37.827Z,94520.59
2023-10-14T13:26:04.337Z,94512.78
2023-10-14T13:28:30.838Z,94516.06
2023-10-14T13:30:57.414Z,94521.22
2023-10-14T13:33:24.649Z,94528.22
2023-10-14T13:35:51.263Z,94530.13
2023-10-14T13:38:17.747Z,94536.94
2023-10-14T13:40:44.852Z,94540.41
2023-10-14T13:43:11.409Z,94549.84
2023-10-14T13:45:37.884Z,94554.34
2023-10-14T13:48:04.384Z,94541.75
2023-10-14T13:50:30.963Z,94539.91
2023-10-14T13:52:57.448Z,94539.66
2023-10-14T13:55:24.979Z,94542.41
2023-10-14T13:57:51.464Z,94537.06
2023-10-14T14:00:17.939Z,94527.41
2023-10-14T14:02:44.461Z,94533.97
2023-10-14T14:05:11.037Z,94536.00
2023-10-14T14:07:37.954Z,94536.41
2023-10-14T14:10:04.439Z,94527.63
2023-10-14T14:12:30.952Z,94527.44
2023-10-14T14:14:57.446Z,94531.75
2023-10-14T14:17:24.020Z,94536.06
2023-10-14T14:19:50.596Z,94544.69
2023-10-14T14:22:17.109Z,94550.03
2023-10-14T14:24:43.654Z,94543.63
2023-10-14T14:27:10.204Z,94545.66
2023-10-14T14:29:36.689Z,94532.69
2023-10-14T14:32:03.309Z,94551.41
2023-10-14T14:34:31.770Z,94559.16
2023-10-14T14:36:59.067Z,94555.06
2023-10-14T14:39:25.722Z,94568.66
2023-10-14T14:41:52.292Z,94589.50
2023-10-14T14:44:18.759Z,94581.84
2023-10-14T14:46:45.278Z,94573.38
2023-10-14T14:49:11.844Z,94578.50
2023-10-14T14:51:38.300Z,94592.50
2023-10-14T14:54:04.765Z,94579.97
2023-10-14T14:56:31.354Z,94589.69
2023-10-14T14:58:57.802Z,94590.19
2023-10-14T15:01:24.346Z,94595.34
2023-10-14T15:03:50.883Z,94589.56
2023-10-14T15:06:17.366Z,94602.50
2023-10-14T15:08:43.802Z,94599.03
2023-10-14T15:11:10.245Z,94598.25
2023-10-14T15:16:03.467Z,94580.66
2023-10-14T15:18:31.055Z,94595.88
2023-10-14T15:20:57.652Z,94595.50
2023-10-14T15:23:24.184Z,94595.31
2023-10-14T15:25:50.687Z,94587.75
2023-10-14T15:28:17.276Z,94609.50
2023-10-14T15:30:44.337Z,94607.84
2023-10-14T15:33:11.059Z,94603.72
2023-10-14T15:35:37.902Z,94618.47
2023-10-14T15:38:04.385Z,94612.31
2023-10-14T15:40:30.908Z,94616.00
2023-10-14T15:42:57.402Z,94604.72
2023-10-14T15:45:24.582Z,94624.81
2023-10-14T15:47:51.202Z,94603.09
2023-10-14T15:50:17.724Z,94603.50
2023-10-14T15:52:44.205Z,94626.59
2023-10-14T15:55:10.699Z,94609.41
2023-10-14T15:57:37.213Z,94613.28
2023-10-14T16:00:03.686Z,94602.63
2023-10-14T16:02:30.314Z,94598.75
2023-10-14T16:04:56.830Z,94619.41
2023-10-14T16:07:23.306Z,94620.41
2023-10-14T16:09:49.793Z,94630.00
2023-10-14T16:12:16.242Z,94609.94
2023-10-14T16:14:42.812Z,94635.72
2023-10-14T16:17:09.281Z,94637.19
2023-10-14T16:19:35.797Z,94654.78
2023-10-14T16:22:02.550Z,94649.66
2023-10-14T16:24:29.031Z,94651.03
2023-10-14T16:26:55.658Z,94636.31
2023-10-14T16:29:25.584Z,94647.59
2023-10-14T16:31:52.560Z,94651.66
2023-10-14T16:34:19.176Z,94681.34
2023-10-14T16:36:45.664Z,94672.31
2023-10-14T16:39:12.125Z,94682.56
2023-10-14T16:41:38.593Z,94698.94
2023-10-14T16:44:05.034Z,94697.34
2023-10-14T16:46:31.604Z,94701.00
2023-10-14T16:48:58.143Z,94711.88
2023-10-14T16:51:24.621Z,94704.09
2023-10-14T16:53:53.061Z,94713.53
2023-10-14T16:56:20.280Z,94740.91
2023-10-14T16:58:46.811Z,94732.72
2023-10-14T17:01:13.400Z,94738.28
2023-10-14T17:03:40.559Z,94746.84
2023-10-14T17:06:07.051Z,94755.56
2023-10-14T17:08:33.727Z,94753.47
2023-10-14T17:11:00.182Z,94741.78
2023-10-14T17:13:26.646Z,94748.09
2023-10-14T17:15:53.263Z,94746.97
2023-10-14T17:18:20.079Z,94743.06
2023-10-14T17:20:46.675Z,94733.63
2023-10-14T17:23:13.331Z,94746.09
2023-10-14T17:25:39.826Z,94735.22
2023-10-14T17:28:06.564Z,94742.56
2023-10-14T17:30:33.382Z,94740.47
2023-10-14T17:33:00.802Z,94742.19
2023-10-14T17:35:27.621Z,94743.84
2023-10-14T17:37:54.096Z,94760.03
2023-10-14T17:40:20.572Z,94757.78
2023-10-14T17:42:47.088Z,94762.34
2023-10-14T17:45:13.526Z,94760.09
2023-10-14T17:47:40.034Z,94763.84
2023-10-14T17:50:06.743Z,94761.22
2023-10-14T17:52:33.396Z,94765.59
2023-10-14T17:54:59.992Z,94770.47
2023-10-14T17:57:26.471Z,94768.84
2023-10-14T17:59:53.072Z,94786.44
2023-10-14T18:02:19.525Z,94790.56
2023-10-14T18:04:46.061Z,94794.69
2023-10-14T18:07:12.934Z,94801.28
2023-10-14T18:09:39.414Z,94799.00
2023-10-14T18:12:05.876Z,94804.88
2023-10-14T18:14:32.599Z,94817.81
2023-10-14T18:17:03.756Z,94806.34
2023-10-14T18:19:30.712Z,94812.66
2023-10-14T18:21:57.414Z,94799.19
2023-10-14T18:24:24.969Z,94802.88
2023-10-14T18:26:51.443Z,94799.50
2023-10-14T18:29:18.635Z,94805.41
2023-10-14T18:31:45.936Z,94805.59
2023-10-14T18:34:13.389Z,94809.66
2023-10-14T18:36:40.940Z,94806.75
2023-10-14T18:39:07.426Z,94822.72
2023-10-14T18:41:33.910Z,94817.91
2023-10-14T18:44:00.695Z,94820.03
2023-10-14T18:46:27.373Z,94820.41
2023-10-14T18:48:54.871Z,94838.44
2023-10-14T18:51:21.360Z,94836.59
2023-10-14T18:53:47.814Z,94843.19
2023-10-14T18:56:14.279Z,94843.66
2023-10-14T18:58:41.264Z,94855.09
2023-10-14T19:01:08.915Z,94865.25
2023-10-14T19:03:36.569Z,94856.22
2023-10-14T19:06:03.101Z,94850.50
2023-10-14T19:08:29.601Z,94851.00
2023-10-14T19:10:58.055Z,94850.53
2023-10-14T19:13:24.582Z,94845.97
2023-10-14T19:15:51.039Z,94853.91
2023-10-14T19:18:17.574Z,94866.28
2023-10-14T19:20:44.066Z,94863.09
2023-10-14T19:23:11.126Z,94860.78
2023-10-14T19:25:37.733Z,94854.19
2023-10-14T19:28:05.322Z,94871.31
2023-10-14T19:30:31.788Z,94868.19
2023-10-14T19:32:59.593Z,94864.81
2023-10-14T19:35:26.087Z,94855.00
2023-10-14T19:37:53.925Z,94860.03
2023-10-14T19:40:21.324Z,94859.31
2023-10-14T19:42:47.966Z,94857.94
2023-10-14T19:45:15.457Z,94842.75
2023-10-14T19:47:41.984Z,94856.38
2023-10-14T19:50:08.600Z,94852.06
2023-10-14T19:52:35.245Z,94853.63
2023-10-14T19:55:02.824Z,94863.72
2023-10-14T19:57:29.445Z,94870.50
2023-10-14T19:59:57.017Z,94882.88
2023-10-14T20:02:23.609Z,94886.88
2023-10-14T20:04:50.219Z,94903.84
2023-10-14T20:07:16.808Z,94896.63
2023-10-14T20:09:43.306Z,94906.06
2023-10-14T20:12:09.826Z,94905.94
2023-10-14T20:14:36.283Z,94894.22
2023-10-14T20:17:02.847Z,94888.53
2023-10-14T20:19:29.426Z,94885.06
2023-10-14T20:21:55.952Z,94899.44
2023-10-14T20:24:22.948Z,94910.84
2023-10-14T20:26:50.467Z,94913.16
2023-10-14T20:29:16.944Z,94902.28
2023-10-14T20:31:43.772Z,94912.75
2023-10-14T20:34:11.252Z,94911.94
2023-10-14T20:36:37.711Z,94910.94
2023-10-14T20:39:04.155Z,94921.41
2023-10-14T20:41:30.665Z,94916.69
2023-10-14T20:43:57.336Z,94908.03
2023-10-14T20:46:23.872Z,94889.03
2023-10-14T20:48:50.367Z,94897.56
2023-10-14T20:51:16.842Z,94903.81
2023-10-14T20:53:43.314Z,94890.91
2023-10-14T20:56:10.269Z,94888.56
2023-10-14T20:58:36.885Z,94903.97
2023-10-14T21:01:03.396Z,94900.63
2023-10-14T21:03:29.939Z,94897.63
2023-10-14T21:05:56.522Z,94901.91
2023-10-14T21:08:23.211Z,94902.59
2023-10-14T21:10:49.726Z,94914.09
2023-10-14T21:13:16.230Z,94917.53
2023-10-14T21:15:42.733Z,94907.38
2023-10-14T21:18:09.325Z,94906.38
2023-10-14T21:20:35.873Z,94905.34
2023-10-14T21:23:02.380Z,94900.38
2023-10-14T21:25:28.852Z,94908.88
2023-10-14T21:27:56.292Z,94907.19
2023-10-14T21:30:23.286Z,94908.63
2023-10-14T21:32:49.799Z,94911.53
2023-10-14T21:35:16.254Z,94910.88
2023-10-14T21:37:42.883Z,94901.75
2023-10-14T21:40:09.397Z,94894.91
2023-10-14T21:42:35.851Z,94894.22
2023-10-14T21:45:02.312Z,94891.91
2023-10-14T21:47:28.853Z,94884.63
2023-10-14T21:49:55.373Z,94876.28
2023-10-14T21:52:21.905Z,94879.78
2023-10-14T21:54:48.419Z,94869.38
2023-10-14T21:57:14.874Z,94870.16
2023-10-14T21:59:41.313Z,94874.88
2023-10-14T22:02:07.837Z,94861.44
2023-10-14T22:04:34.455Z,94861.75
2023-10-14T22:07:00.945Z,94869.13
2023-10-14T22:09:27.396Z,94873.31
2023-10-14T22:11:53.840Z,94863.03
2023-10-14T22:14:20.358Z,94860.88
2023-10-14T22:16:46.858Z,94849.91
2023-10-14T22:19:13.618Z,94848.97
2023-10-14T22:21:40.155Z,94847.63
2023-10-14T22:24:06.596Z,94839.44
2023-10-14T22:26:33.271Z,94836.34
2023-10-14T22:28:59.866Z,94836.63
2023-10-14T22:31:26.463Z,94830.66
2023-10-14T22:33:53.013Z,94831.69
2023-10-14T22:36:19.516Z,94829.56
2023-10-14T22:38:45.987Z,94832.03
2023-10-14T22:41:12.697Z,94827.38
2023-10-14T22:43:39.324Z,94831.97
2023-10-14T22:46:05.899Z,94845.31
2023-10-14T22:48:32.349Z,94846.78
2023-10-14T22:50:58.871Z,94851.06
2023-10-14T22:53:25.315Z,94851.06
2023-10-14T22:55:52.885Z,94844.75
2023-10-14T22:58:20.007Z,94844.66
2023-10-14T23:00:47.539Z,94845.59
2023-10-14T23:03:15.120Z,94849.63
2023-10-14T23:05:41.641Z,94840.50
2023-10-14T23:08:08.863Z,94841.63
2023-10-14T23:10:36.058Z,94838.06
2023-10-14T23:13:04.447Z,94848.31
2023-10-14T23:15:31.066Z,94839.88
2023-10-14T23:17:57.759Z,94839.19
2023-10-14T23:20:24.600Z,94847.25
2023-10-14T23:22:51.142Z,94856.19
2023-10-14T23:25:17.638Z,94857.06
2023-10-14T23:27:44.115Z,94856.22
2023-10-14T23:30:10.573Z,94853.06
2023-10-14T23:32:37.055Z,94851.75
2023-10-14T23:35:03.513Z,94845.63
2023-10-14T23:37:30.048Z,94854.41
2023-10-14T23:39:56.564Z,94856.06
2023-10-14T23:42:23.020Z,94848.38
2023-10-14T23:44:49.455Z,94842.91
2023-10-14T23:47:16.022Z,94846.66
2023-10-14T23:49:42.665Z,94846.13
2023-10-14T23:52:09.141Z,94844.75
2023-10-14T23:54:35.617Z,94848.19
2023-10-14T23:57:02.081Z,94841.13
2023-10-14T23:59:28.552Z,94841.06
